Luquillo, Puerto Rico
Current Conditions -  °F | °C
As of 3:53 AM on Thursday 25 Dec 2014 (Local Time) from TJNR Reporting Station
Scattered Clouds Scattered Clouds  
Wind Chill: 78°   Ceiling: Unl
Heat Index: 80°   Visibility: 10mi
Dew Point: 69°   Wind: 13mph
Humidity: 74%   Direction: 50°NE
Pressure: 30.04"   Gusts: NA
Location:  18.38°N, 65.72°W
Report Text: TJNR 250753Z AUTO 05011KT 10SM FEW028 FEW039 SCT048 26/21 A3004 RMK AO2 SLP172 T02560206 $
Loading
Personal Weather Stations






























Interactive Weather Map New forecast layout! Learn more

10-Day Weather Forecast

Advertisements
Track Severe Weather on mobile